Time;durP1;ratioP1;P1;durP2;ratioP2;P2;SDS_P1;SDS_P2;PMS_P1;PMS_P2;Temp;Humidity;BMP_temperature;BMP_pressure;BME280_temperature;BME280_humidity;BME280_pressure;Samples;Min_cycle;Max_cycle;Signal;HPM_P1;HPM_P2
2021/01/05 00:01:12;;;;;;;;;;;;;;;22.45;32.74;101745.34;3095404;28;114823;-58
2021/01/05 00:02:51;;;;;;;;;;;;;;;22.44;32.55;101748.50;3099377;28;115175;-58
2021/01/05 00:04:33;;;;;;;;;;;;;;;22.42;32.36;101754.41;3093716;28;114455;-58
2021/01/05 00:06:09;;;;;;;;;;;;;;;22.40;32.44;101744.59;3094963;28;114582;-58
2021/01/05 00:07:50;;;;;;;;;;;;;;;22.39;32.54;101742.94;3094804;28;114760;-59
2021/01/05 00:09:29;;;;;;;;;;;;;;;22.37;32.48;101753.66;3091864;28;117503;-58
2021/01/05 00:11:07;;;;;;;;;;;;;;;22.36;32.93;101755.63;3093566;28;115351;-59
2021/01/05 00:12:50;;;;;;;;;;;;;;;22.34;32.81;101757.06;3098927;28;114577;-57
2021/01/05 00:14:31;;;;;;;;;;;;;;;22.33;32.80;101746.94;3097908;28;114464;-58
2021/01/05 00:16:09;;;;;;;;;;;;;;;22.31;32.75;101752.03;3095236;28;114648;-58
2021/01/05 00:18:02;;;;;;;;;;;;;;;22.23;32.85;101753.53;3094786;28;114610;-59
2021/01/05 00:19:41;;;;;;;;;;;;;;;22.21;32.96;101747.38;3092275;28;115172;-58
2021/01/05 00:21:19;;;;;;;;;;;;;;;22.20;32.70;101751.34;3096765;28;114776;-58
2021/01/05 00:23:07;;;;;;;;;;;;;;;22.18;32.73;101756.41;3096496;28;113952;-58
2021/01/05 00:24:45;;;;;;;;;;;;;;;22.15;32.73;101743.78;3099145;28;114731;-58
2021/01/05 00:26:24;;;;;;;;;;;;;;;22.13;33.00;101757.31;3099260;28;114330;-59
2021/01/05 00:28:01;;;;;;;;;;;;;;;22.11;33.15;101745.53;3093928;28;114079;-58
2021/01/05 00:29:40;;;;;;;;;;;;;;;22.10;32.83;101751.44;3090928;28;115018;-58
2021/01/05 00:31:17;;;;;;;;;;;;;;;22.07;32.93;101741.63;3095796;28;113866;-59
2021/01/05 00:32:55;;;;;;;;;;;;;;;22.05;33.17;101743.91;3096307;28;114344;-59
2021/01/05 00:34:36;;;;;;;;;;;;;;;22.04;33.19;101752.63;3097228;28;114266;-59
2021/01/05 00:36:14;;;;;;;;;;;;;;;22.01;33.37;101745.63;3095896;28;114676;-56
2021/01/05 00:37:52;;;;;;;;;;;;;;;22.00;33.17;101743.13;3097204;28;114775;-58
2021/01/05 00:39:29;;;;;;;;;;;;;;;21.97;33.28;101738.09;3096640;28;114471;-58
2021/01/05 00:41:08;;;;;;;;;;;;;;;21.95;33.30;101741.19;3099284;28;114264;-58
2021/01/05 00:42:46;;;;;;;;;;;;;;;21.88;33.41;101745.47;3094569;28;114371;-57
2021/01/05 00:44:26;;;;;;;;;;;;;;;21.89;33.23;101744.34;3093230;28;114191;-57
2021/01/05 00:45:58;;;;;;;;;;;;;;;21.87;33.30;101743.81;3088314;28;115089;-57
2021/01/05 00:47:29;;;;;;;;;;;;;;;21.83;33.52;101740.75;3096402;28;114428;-57
2021/01/05 00:49:00;;;;;;;;;;;;;;;21.81;33.39;101742.16;3093799;28;116193;-58
2021/01/05 00:50:31;;;;;;;;;;;;;;;21.78;33.49;101743.63;3094552;28;114234;-58
2021/01/05 00:52:02;;;;;;;;;;;;;;;21.76;33.78;101745.06;3092450;28;115771;-57
2021/01/05 00:53:36;;;;;;;;;;;;;;;21.76;33.67;101748.69;3091813;28;115307;-57
2021/01/05 00:55:07;;;;;;;;;;;;;;;21.73;33.49;101746.47;3097509;28;114152;-58
2021/01/05 00:56:39;;;;;;;;;;;;;;;21.71;33.57;101748.78;3098986;28;114077;-57
2021/01/05 00:58:10;;;;;;;;;;;;;;;21.68;33.54;101744.56;3099623;28;114984;-58
2021/01/05 00:59:41;;;;;;;;;;;;;;;21.67;33.85;101748.50;3098506;28;115285;-57
2021/01/05 01:01:13;;;;;;;;;;;;;;;21.67;33.68;101740.06;3097393;28;114536;-58
2021/01/05 01:02:46;;;;;;;;;;;;;;;21.64;33.74;101739.81;3097895;28;114163;-57
2021/01/05 01:04:18;;;;;;;;;;;;;;;21.65;33.96;101745.16;3095681;28;114664;-58
2021/01/05 01:05:49;;;;;;;;;;;;;;;21.65;33.71;101745.16;3095041;28;115353;-57
2021/01/05 01:07:20;;;;;;;;;;;;;;;21.65;33.65;101742.34;3097837;28;115275;-57
2021/01/05 01:08:52;;;;;;;;;;;;;;;21.64;33.80;101737.84;3100233;28;115218;-58
2021/01/05 01:10:25;;;;;;;;;;;;;;;21.66;33.84;101735.59;3098634;28;114855;-58
2021/01/05 01:11:58;;;;;;;;;;;;;;;21.63;33.67;101733.34;3097306;28;115979;-58
2021/01/05 01:13:29;;;;;;;;;;;;;;;21.61;33.82;101732.00;3098456;28;115688;-58
2021/01/05 01:15:00;;;;;;;;;;;;;;;21.61;33.53;101735.66;3098353;28;115783;-59
2021/01/05 01:16:32;;;;;;;;;;;;;;;21.60;33.78;101736.78;3096590;28;116733;-59
2021/01/05 01:18:04;;;;;;;;;;;;;;;21.59;33.55;101739.88;3096844;28;114608;-59
2021/01/05 01:19:35;;;;;;;;;;;;;;;21.58;33.61;101726.94;3094989;28;117368;-58
2021/01/05 01:21:06;;;;;;;;;;;;;;;21.56;33.77;101741.31;3096282;28;114999;-57
2021/01/05 01:22:37;;;;;;;;;;;;;;;21.55;33.96;101727.53;3096801;28;116394;-57
2021/01/05 01:24:09;;;;;;;;;;;;;;;21.52;33.53;101728.16;3096822;28;114905;-57
2021/01/05 01:25:40;;;;;;;;;;;;;;;21.48;33.76;101729.88;3099095;28;115201;-57
2021/01/05 01:27:12;;;;;;;;;;;;;;;21.47;33.95;101729.03;3099387;28;115451;-58
2021/01/05 01:28:43;;;;;;;;;;;;;;;21.45;33.99;101738.88;3094149;28;115353;-57
2021/01/05 01:30:17;;;;;;;;;;;;;;;21.45;33.93;101724.81;3099601;28;114588;-59
2021/01/05 01:31:48;;;;;;;;;;;;;;;21.42;33.93;101729.06;3094816;28;114262;-58
2021/01/05 01:33:20;;;;;;;;;;;;;;;21.41;34.11;101723.75;3088109;28;114168;-59
2021/01/05 01:34:51;;;;;;;;;;;;;;;21.39;34.13;101729.69;3097481;28;115010;-58
2021/01/05 01:36:22;;;;;;;;;;;;;;;21.37;34.19;101725.47;3098421;28;114238;-58
2021/01/05 01:37:53;;;;;;;;;;;;;;;21.36;34.34;101729.41;3097094;28;113784;-58
2021/01/05 01:39:25;;;;;;;;;;;;;;;21.33;34.28;101727.19;3097953;28;114272;-58
2021/01/05 01:40:57;;;;;;;;;;;;;;;21.32;33.96;101728.31;3098487;28;114453;-56
2021/01/05 01:42:28;;;;;;;;;;;;;;;21.29;33.99;101729.75;3095478;28;113750;-57
2021/01/05 01:44:00;;;;;;;;;;;;;;;21.28;34.06;101733.69;3099207;28;114487;-57
2021/01/05 01:45:33;;;;;;;;;;;;;;;21.26;34.02;101725.56;3099360;28;116849;-57
2021/01/05 01:47:16;;;;;;;;;;;;;;;21.24;33.97;101733.47;3091324;28;114167;-57
2021/01/05 01:48:48;;;;;;;;;;;;;;;21.24;34.30;101732.63;3096179;28;114196;-57
2021/01/05 01:50:27;;;;;;;;;;;;;;;21.20;34.38;101737.16;3096419;28;114420;-57
2021/01/05 01:51:58;;;;;;;;;;;;;;;21.18;34.46;101728.16;3098757;28;114145;-57
2021/01/05 01:53:52;;;;;;;;;;;;;;;21.15;34.35;101737.19;3102809;28;114049;-57
2021/01/05 01:55:24;;;;;;;;;;;;;;;21.14;34.28;101732.69;3087984;28;115436;-57
2021/01/05 01:57:13;;;;;;;;;;;;;;;21.12;34.56;101737.75;3099417;28;114087;-57
2021/01/05 01:58:56;;;;;;;;;;;;;;;21.09;34.23;101736.34;3096062;28;115015;-57
2021/01/05 02:00:40;;;;;;;;;;;;;;;21.09;34.45;101743.94;3091593;28;114341;-57
2021/01/05 02:02:13;;;;;;;;;;;;;;;21.05;34.68;101743.69;3087363;28;114393;-57
2021/01/05 02:04:03;;;;;;;;;;;;;;;21.04;34.35;101735.53;3094937;28;115621;-57
2021/01/05 02:05:36;;;;;;;;;;;;;;;21.04;34.33;101738.34;3087790;28;115513;-57
2021/01/05 02:07:18;;;;;;;;;;;;;;;21.03;34.72;101747.94;3097547;28;114694;-57
2021/01/05 02:09:13;;;;;;;;;;;;;;;21.02;34.71;101752.72;3085369;28;115328;-57
2021/01/05 02:11:07;;;;;;;;;;;;;;;20.99;34.60;101739.22;3085991;28;114244;-57
2021/01/05 02:12:47;;;;;;;;;;;;;;;20.96;34.49;101742.63;3086004;28;115625;-57
2021/01/05 02:14:37;;;;;;;;;;;;;;;20.95;34.74;101734.50;3101513;28;115302;-57
2021/01/05 02:16:28;;;;;;;;;;;;;;;20.93;34.70;101740.41;3097414;28;114078;-57
2021/01/05 02:18:06;;;;;;;;;;;;;;;20.91;34.56;101739.84;3098716;28;115071;-57
2021/01/05 02:19:52;;;;;;;;;;;;;;;20.88;34.92;101737.66;3091220;28;116383;-57
2021/01/05 02:21:29;;;;;;;;;;;;;;;20.85;34.75;101733.44;3086093;28;115183;-58
2021/01/05 02:23:19;;;;;;;;;;;;;;;20.84;34.66;101728.13;3090869;28;114732;-57
2021/01/05 02:25:11;;;;;;;;;;;;;;;20.82;34.83;101734.03;3095377;28;115807;-56
2021/01/05 02:26:42;;;;;;;;;;;;;;;20.79;34.76;101726.19;3098559;28;117765;-56
2021/01/05 02:28:16;;;;;;;;;;;;;;;20.79;34.97;101730.97;3098683;28;116355;-57
2021/01/05 02:29:54;;;;;;;;;;;;;;;20.76;34.84;101725.91;3096795;28;115867;-56
2021/01/05 02:31:28;;;;;;;;;;;;;;;20.78;34.79;101726.47;3097045;28;115879;-56
2021/01/05 02:33:31;;;;;;;;;;;;;;;20.75;34.91;101739.16;3087107;28;115932;-56
2021/01/05 02:35:18;;;;;;;;;;;;;;;20.72;34.93;101734.09;3065355;28;115375;-57
2021/01/05 02:36:59;;;;;;;;;;;;;;;20.71;34.81;101735.25;3095209;28;115008;-57
2021/01/05 02:38:49;;;;;;;;;;;;;;;20.69;35.08;101733.84;3094748;28;115754;-57
2021/01/05 02:40:20;;;;;;;;;;;;;;;20.68;34.90;101732.16;3096787;28;114283;-56
2021/01/05 02:42:00;;;;;;;;;;;;;;;20.68;35.17;101729.34;3101920;28;114787;-56
2021/01/05 02:43:34;;;;;;;;;;;;;;;20.64;35.19;101733.88;3099991;28;113825;-57
2021/01/05 02:45:21;;;;;;;;;;;;;;;20.60;34.96;101733.59;3098007;28;114664;-57
2021/01/05 02:47:05;;;;;;;;;;;;;;;20.57;35.40;101731.38;3098525;28;114008;-57
2021/01/05 02:48:46;;;;;;;;;;;;;;;20.58;35.25;101723.81;3094699;28;115019;-56
2021/01/05 02:50:28;;;;;;;;;;;;;;;20.56;35.15;101726.06;3098239;28;114544;-56
2021/01/05 02:52:17;;;;;;;;;;;;;;;20.53;34.98;101721.88;3099042;28;114085;-56
2021/01/05 02:54:21;;;;;;;;;;;;;;;20.52;35.48;101728.59;3097528;28;114285;-56
2021/01/05 02:56:12;;;;;;;;;;;;;;;20.51;35.38;101715.69;3073732;28;113978;-56
2021/01/05 02:57:49;;;;;;;;;;;;;;;20.52;35.27;101724.97;3092392;28;114141;-56
2021/01/05 02:59:39;;;;;;;;;;;;;;;20.48;35.14;101724.72;3093914;28;113858;-56
2021/01/05 03:01:11;;;;;;;;;;;;;;;20.47;35.46;101731.44;3094241;28;113866;-56
2021/01/05 03:02:48;;;;;;;;;;;;;;;20.45;35.41;101735.66;3094500;28;114271;-56
2021/01/05 03:04:19;;;;;;;;;;;;;;;20.41;35.56;101729.78;3092246;28;114225;-56
2021/01/05 03:06:10;;;;;;;;;;;;;;;20.41;35.18;101738.19;3099416;28;116016;-57
2021/01/05 03:07:41;;;;;;;;;;;;;;;20.42;35.26;101734.28;3094650;28;115867;-57
2021/01/05 03:09:24;;;;;;;;;;;;;;;20.40;35.49;101733.72;3091657;28;114198;-57
2021/01/05 03:11:01;;;;;;;;;;;;;;;20.37;35.43;101729.53;3094776;28;115240;-57
2021/01/05 03:12:54;;;;;;;;;;;;;;;20.38;35.25;101735.97;3094530;28;115058;-57
2021/01/05 03:14:37;;;;;;;;;;;;;;;20.36;35.25;101738.22;3086885;28;114077;-57
2021/01/05 03:16:13;;;;;;;;;;;;;;;20.35;35.73;101736.56;3092886;28;115142;-56
2021/01/05 03:17:49;;;;;;;;;;;;;;;20.32;35.39;101737.13;3086642;28;114773;-57
2021/01/05 03:19:26;;;;;;;;;;;;;;;20.32;35.80;101728.69;3092475;28;115120;-57
2021/01/05 03:21:01;;;;;;;;;;;;;;;20.31;35.71;101735.44;3087076;28;114629;-57
2021/01/05 03:22:35;;;;;;;;;;;;;;;20.30;35.67;101734.63;3095877;28;115142;-57
2021/01/05 03:24:06;;;;;;;;;;;;;;;20.26;35.88;101727.84;3094765;28;114143;-57
2021/01/05 03:25:39;;;;;;;;;;;;;;;20.26;35.63;101738.25;3095606;28;114122;-57
2021/01/05 03:27:11;;;;;;;;;;;;;;;20.24;36.06;101732.94;3106777;28;114150;-57
2021/01/05 03:28:43;;;;;;;;;;;;;;;20.22;35.88;101729.56;3107038;28;115466;-57
2021/01/05 03:30:22;;;;;;;;;;;;;;;20.21;35.86;101733.50;3097362;28;115125;-57
2021/01/05 03:31:55;;;;;;;;;;;;;;;20.20;35.91;101734.63;3093824;28;116323;-58
2021/01/05 03:33:27;;;;;;;;;;;;;;;20.20;35.92;101728.16;3098077;28;114993;-57
2021/01/05 03:34:58;;;;;;;;;;;;;;;20.19;36.09;101732.09;3094468;28;116118;-57
2021/01/05 03:36:29;;;;;;;;;;;;;;;20.17;36.16;101726.75;3084905;28;115898;-57
2021/01/05 03:38:00;;;;;;;;;;;;;;;20.17;36.30;101729.56;3087358;28;114795;-56
2021/01/05 03:39:31;;;;;;;;;;;;;;;20.16;36.27;101730.72;3091930;28;115559;-56
2021/01/05 03:41:02;;;;;;;;;;;;;;;20.14;36.34;101721.75;3097962;28;115947;-56
2021/01/05 03:42:33;;;;;;;;;;;;;;;20.13;36.01;101719.22;3107475;28;114526;-57
2021/01/05 03:44:05;;;;;;;;;;;;;;;20.13;36.37;101719.22;3099829;27;115436;-58
2021/01/05 03:45:36;;;;;;;;;;;;;;;20.10;36.51;101725.41;3097647;28;114676;-58
2021/01/05 03:47:07;;;;;;;;;;;;;;;20.07;36.68;101718.41;3096243;28;114960;-58
2021/01/05 03:48:40;;;;;;;;;;;;;;;20.07;36.66;101728.78;3093502;28;115994;-58
2021/01/05 03:50:11;;;;;;;;;;;;;;;20.06;36.28;101727.94;3093339;28;115819;-59
2021/01/05 03:51:42;;;;;;;;;;;;;;;20.06;36.51;101715.88;3100823;28;115780;-58
2021/01/05 03:53:14;;;;;;;;;;;;;;;20.06;36.56;101715.88;3098215;28;114320;-58
2021/01/05 03:54:45;;;;;;;;;;;;;;;20.05;36.63;101717.00;3097165;28;114248;-58
2021/01/05 03:56:16;;;;;;;;;;;;;;;20.04;36.49;101721.78;3097444;28;113821;-58
2021/01/05 03:57:47;;;;;;;;;;;;;;;20.01;36.53;101719.56;3097181;28;114170;-58
2021/01/05 03:59:18;;;;;;;;;;;;;;;19.99;36.49;101717.03;3093299;28;114081;-58
2021/01/05 04:00:49;;;;;;;;;;;;;;;19.97;36.56;101708.06;3091404;28;115853;-58
2021/01/05 04:02:21;;;;;;;;;;;;;;;19.98;36.73;101718.16;3092718;28;114747;-58
2021/01/05 04:03:52;;;;;;;;;;;;;;;19.97;36.50;101716.47;3084049;28;114279;-58
2021/01/05 04:05:24;;;;;;;;;;;;;;;19.97;36.49;101719.28;3095069;28;114094;-58
2021/01/05 04:06:55;;;;;;;;;;;;;;;19.94;36.82;101717.03;3097968;28;114102;-58
2021/01/05 04:08:27;;;;;;;;;;;;;;;19.94;36.58;101717.03;3098505;28;113832;-58
2021/01/05 04:09:58;;;;;;;;;;;;;;;19.93;36.57;101709.78;3086710;28;114746;-60
2021/01/05 04:11:30;;;;;;;;;;;;;;;19.90;36.72;101713.13;3096679;28;115092;-56
2021/01/05 04:13:01;;;;;;;;;;;;;;;19.91;36.69;101711.16;3111188;28;114077;-56
2021/01/05 04:14:32;;;;;;;;;;;;;;;19.91;36.78;101713.97;3102194;28;115220;-56
2021/01/05 04:16:03;;;;;;;;;;;;;;;19.89;36.84;101707.81;3098341;28;115149;-56
2021/01/05 04:17:34;;;;;;;;;;;;;;;19.87;36.92;101701.66;3096910;28;115154;-57
2021/01/05 04:19:06;;;;;;;;;;;;;;;19.87;36.78;101705.28;3095335;28;115193;-56
2021/01/05 04:20:37;;;;;;;;;;;;;;;19.84;36.81;101707.84;3097467;28;113785;-56
2021/01/05 04:22:08;;;;;;;;;;;;;;;19.85;36.88;101706.72;3097878;28;115035;-56
2021/01/05 04:23:39;;;;;;;;;;;;;;;19.84;36.94;101705.03;3097536;28;115062;-56
2021/01/05 04:25:12;;;;;;;;;;;;;;;19.81;36.96;101708.38;3098699;28;115548;-56
2021/01/05 04:26:43;;;;;;;;;;;;;;;19.79;37.15;101710.66;3095839;28;114670;-56
2021/01/05 04:28:14;;;;;;;;;;;;;;;19.78;37.00;101703.34;3095586;28;114433;-56
2021/01/05 04:29:45;;;;;;;;;;;;;;;19.78;36.98;101692.13;3091362;28;115649;-56
2021/01/05 04:31:16;;;;;;;;;;;;;;;19.75;37.24;101701.97;3093009;28;114252;-56
2021/01/05 04:32:48;;;;;;;;;;;;;;;19.75;36.98;101703.94;3097121;28;114708;-56
2021/01/05 04:34:19;;;;;;;;;;;;;;;19.72;37.25;101713.75;3092670;28;115334;-56
2021/01/05 04:35:50;;;;;;;;;;;;;;;19.71;37.12;101700.03;3100474;28;116166;-56
2021/01/05 04:37:22;;;;;;;;;;;;;;;19.68;37.19;101709.81;3112456;28;114570;-56
2021/01/05 04:38:53;;;;;;;;;;;;;;;19.67;37.34;101702.53;3086670;28;119854;-57
2021/01/05 04:40:35;;;;;;;;;;;;;;;19.66;37.48;101700.03;3094546;28;114638;-56
2021/01/05 04:42:12;;;;;;;;;;;;;;;19.67;37.52;101702.53;3097526;28;114789;-56
2021/01/05 04:43:46;;;;;;;;;;;;;;;19.65;37.50;101710.41;3101684;28;115036;-56
2021/01/05 04:45:21;;;;;;;;;;;;;;;19.66;37.38;101706.50;3093990;28;115752;-57
2021/01/05 04:46:56;;;;;;;;;;;;;;;19.67;37.52;101713.75;3095434;28;115856;-56
2021/01/05 04:48:36;;;;;;;;;;;;;;;19.64;37.13;101708.72;3089758;28;114701;-56
2021/01/05 04:50:12;;;;;;;;;;;;;;;19.63;37.58;101707.03;3089915;28;115782;-56
2021/01/05 04:51:55;;;;;;;;;;;;;;;19.60;37.61;101707.63;3089163;28;114782;-58
2021/01/05 04:53:30;;;;;;;;;;;;;;;19.58;37.39;101707.03;3087945;28;114505;-58
2021/01/05 04:55:04;;;;;;;;;;;;;;;19.57;37.48;101702.59;3088488;28;116150;-58
2021/01/05 04:56:53;;;;;;;;;;;;;;;19.59;37.48;101705.91;3090970;28;115748;-57
2021/01/05 04:58:41;;;;;;;;;;;;;;;19.61;37.54;101716.88;3087704;28;114037;-57
2021/01/05 05:00:13;;;;;;;;;;;;;;;19.66;37.65;101716.84;3087799;28;113978;-57
2021/01/05 05:01:45;;;;;;;;;;;;;;;19.70;37.37;101706.75;3090064;28;114093;-57
2021/01/05 05:03:27;;;;;;;;;;;;;;;19.73;37.19;101712.63;3099587;28;114099;-57
2021/01/05 05:05:04;;;;;;;;;;;;;;;19.77;37.43;101715.69;3086413;28;114013;-57
2021/01/05 05:06:39;;;;;;;;;;;;;;;19.80;37.44;101706.72;3090581;28;114559;-57
2021/01/05 05:08:13;;;;;;;;;;;;;;;19.83;37.50;101704.19;3087677;28;114348;-56
2021/01/05 05:09:51;;;;;;;;;;;;;;;19.86;37.71;101709.22;3089674;28;114135;-56
2021/01/05 05:11:26;;;;;;;;;;;;;;;19.91;37.56;101723.22;3090193;28;115429;-56
2021/01/05 05:13:12;;;;;;;;;;;;;;;19.95;37.81;101715.06;3099974;28;114377;-57
2021/01/05 05:14:46;;;;;;;;;;;;;;;19.99;37.89;101714.22;3099088;28;114074;-57
2021/01/05 05:16:17;;;;;;;;;;;;;;;20.05;37.83;101720.66;3099256;28;114185;-57
2021/01/05 05:18:07;;;;;;;;;;;;;;;20.10;37.63;101715.03;3092101;28;114080;-57
2021/01/05 05:19:56;;;;;;;;;;;;;;;20.15;37.30;101719.78;3100037;27;114763;-57
2021/01/05 05:21:32;;;;;;;;;;;;;;;20.21;37.36;101711.06;3097775;28;114359;-58
2021/01/05 05:23:06;;;;;;;;;;;;;;;20.26;37.45;101708.19;3097888;28;115271;-57
2021/01/05 05:24:43;;;;;;;;;;;;;;;20.33;37.29;101708.78;3099187;28;115196;-56
2021/01/05 05:26:20;;;;;;;;;;;;;;;20.39;37.20;101707.63;3099788;28;115313;-56
2021/01/05 05:28:01;;;;;;;;;;;;;;;20.44;36.88;101706.75;3099794;28;117046;-56
2021/01/05 05:29:32;;;;;;;;;;;;;;;20.50;37.00;101708.41;3095106;28;115099;-56
2021/01/05 05:31:04;;;;;;;;;;;;;;;20.55;37.02;101688.72;3097240;28;114026;-57
2021/01/05 05:32:37;;;;;;;;;;;;;;;20.60;36.57;101696.25;3098337;28;115612;-57
2021/01/05 05:34:12;;;;;;;;;;;;;;;20.66;36.63;101697.91;3096998;28;114568;-57
2021/01/05 05:35:47;;;;;;;;;;;;;;;20.70;36.80;101694.25;3098618;28;114735;-57
2021/01/05 05:37:36;;;;;;;;;;;;;;;20.76;36.71;101709.06;3094534;28;114614;-57
2021/01/05 05:39:18;;;;;;;;;;;;;;;20.80;36.81;101696.94;3096282;28;115685;-58
2021/01/05 05:40:53;;;;;;;;;;;;;;;20.86;36.48;101697.75;3087777;28;114020;-57
2021/01/05 05:42:31;;;;;;;;;;;;;;;20.90;36.31;101693.22;3111594;27;114434;-57
2021/01/05 05:44:24;;;;;;;;;;;;;;;20.94;36.22;101699.94;3112110;27;114241;-57
2021/01/05 05:46:11;;;;;;;;;;;;;;;20.99;36.04;101697.09;3087097;28;114794;-57
2021/01/05 05:47:50;;;;;;;;;;;;;;;21.04;36.05;101697.06;3099263;28;114637;-57
2021/01/05 05:49:46;;;;;;;;;;;;;;;21.10;35.99;101697.84;3095569;28;114772;-57
2021/01/05 05:51:19;;;;;;;;;;;;;;;21.13;35.86;101698.13;3093721;28;114951;-56
2021/01/05 05:52:53;;;;;;;;;;;;;;;21.18;36.39;101700.06;3096687;28;115697;-56
2021/01/05 05:54:24;;;;;;;;;;;;;;;21.22;36.44;101701.13;3097363;27;114684;-57
2021/01/05 05:56:05;;;;;;;;;;;;;;;21.25;36.03;101709.00;3094333;28;114820;-56
2021/01/05 05:57:41;;;;;;;;;;;;;;;21.30;36.11;101709.78;3098253;28;115856;-56
2021/01/05 05:59:13;;;;;;;;;;;;;;;21.34;35.81;101704.41;3097413;28;115734;-57
2021/01/05 06:00:46;;;;;;;;;;;;;;;21.37;35.95;101703.81;3098659;28;116189;-57
2021/01/05 06:02:20;;;;;;;;;;;;;;;21.41;35.85;101699.28;3091301;28;114862;-56
2021/01/05 06:03:52;;;;;;;;;;;;;;;21.44;35.52;101695.88;3090604;28;114556;-57
2021/01/05 06:05:27;;;;;;;;;;;;;;;21.49;35.49;101706.22;3096419;28;115816;-57
2021/01/05 06:06:58;;;;;;;;;;;;;;;21.51;35.76;101702.00;3100304;28;115756;-56
2021/01/05 06:08:29;;;;;;;;;;;;;;;21.55;35.44;101694.63;3096531;28;114116;-56
2021/01/05 06:10:00;;;;;;;;;;;;;;;21.60;35.59;101699.38;3096015;28;114726;-57
2021/01/05 06:11:37;;;;;;;;;;;;;;;21.61;35.58;101699.09;3098643;28;113949;-57
2021/01/05 06:13:09;;;;;;;;;;;;;;;21.65;35.91;101694.53;3100248;28;115778;-56
2021/01/05 06:14:40;;;;;;;;;;;;;;;21.69;35.85;101700.41;3096719;28;114144;-56
2021/01/05 06:16:11;;;;;;;;;;;;;;;21.71;35.36;101698.94;3091273;28;114224;-56
2021/01/05 06:17:42;;;;;;;;;;;;;;;21.74;35.68;101698.38;3092611;28;114291;-56
2021/01/05 06:19:14;;;;;;;;;;;;;;;21.77;35.63;101691.28;3094548;28;114607;-56
2021/01/05 06:20:45;;;;;;;;;;;;;;;21.79;35.27;101694.66;3096239;28;114626;-57
2021/01/05 06:22:17;;;;;;;;;;;;;;;21.82;35.62;101694.06;3098209;28;114315;-58
2021/01/05 06:23:48;;;;;;;;;;;;;;;21.85;35.26;101692.63;3093263;28;114333;-58
2021/01/05 06:25:19;;;;;;;;;;;;;;;21.88;35.19;101700.47;3097515;28;113964;-57
2021/01/05 06:26:50;;;;;;;;;;;;;;;21.91;35.30;101708.31;3098541;28;114053;-58
2021/01/05 06:28:21;;;;;;;;;;;;;;;21.93;35.31;101700.44;3101341;28;113888;-57
2021/01/05 06:29:52;;;;;;;;;;;;;;;21.96;35.13;101697.03;3095441;28;115446;-57
2021/01/05 06:31:23;;;;;;;;;;;;;;;21.98;35.45;101703.19;3098081;28;115313;-58
2021/01/05 06:32:55;;;;;;;;;;;;;;;22.01;35.34;101711.88;3096791;28;115576;-57
2021/01/05 06:34:26;;;;;;;;;;;;;;;22.04;35.42;101707.59;3090202;28;115403;-57
2021/01/05 06:35:57;;;;;;;;;;;;;;;22.07;35.37;101707.03;3090170;28;115054;-57
2021/01/05 06:37:28;;;;;;;;;;;;;;;22.10;35.59;101712.03;3094484;28;114527;-57
2021/01/05 06:39:00;;;;;;;;;;;;;;;22.12;35.14;101702.16;3095220;28;115126;-57
2021/01/05 06:40:31;;;;;;;;;;;;;;;22.14;35.22;101716.78;3099035;28;116687;-57
2021/01/05 06:42:03;;;;;;;;;;;;;;;22.16;35.16;101725.75;3108068;28;114182;-57
2021/01/05 06:43:34;;;;;;;;;;;;;;;22.20;35.43;101722.34;3109512;28;115024;-57
2021/01/05 06:45:06;;;;;;;;;;;;;;;22.24;35.40;101729.03;3104056;28;115155;-57
2021/01/05 06:46:37;;;;;;;;;;;;;;;22.26;35.27;101732.41;3093433;28;115920;-57
2021/01/05 06:48:09;;;;;;;;;;;;;;;22.28;34.97;101722.50;3096182;28;115603;-57
2021/01/05 06:49:40;;;;;;;;;;;;;;;22.30;35.40;101725.03;3095108;28;115277;-57
2021/01/05 06:51:12;;;;;;;;;;;;;;;22.32;35.28;101726.38;3087449;28;116029;-57
2021/01/05 06:52:43;;;;;;;;;;;;;;;22.35;35.44;101728.59;3092280;28;116180;-57
2021/01/05 06:54:14;;;;;;;;;;;;;;;22.37;35.06;101729.16;3085208;28;114676;-56
2021/01/05 06:55:45;;;;;;;;;;;;;;;22.40;35.27;101733.31;3087446;28;115706;-56
2021/01/05 06:57:16;;;;;;;;;;;;;;;22.43;35.47;101732.75;3087774;28;115253;-56
2021/01/05 06:58:51;;;;;;;;;;;;;;;22.45;35.31;101734.09;3086944;28;115506;-57
2021/01/05 07:00:25;;;;;;;;;;;;;;;22.47;35.52;101737.47;3086196;28;115909;-57
2021/01/05 07:02:04;;;;;;;;;;;;;;;22.49;35.31;101731.50;3087701;28;116064;-57
2021/01/05 07:03:35;;;;;;;;;;;;;;;22.51;35.21;101729.25;3086071;28;115707;-57
2021/01/05 07:05:06;;;;;;;;;;;;;;;22.51;35.21;101735.72;3088800;28;114747;-57
2021/01/05 07:06:38;;;;;;;;;;;;;;;22.54;35.33;101737.06;3098183;28;114607;-57
2021/01/05 07:08:09;;;;;;;;;;;;;;;22.58;35.38;101738.13;3108011;28;115240;-58
2021/01/05 07:09:41;;;;;;;;;;;;;;;22.59;35.18;101726.56;3084546;28;115844;-57
2021/01/05 07:11:12;;;;;;;;;;;;;;;22.61;35.08;101738.41;3090155;28;114642;-58
2021/01/05 07:12:44;;;;;;;;;;;;;;;22.63;35.07;101730.47;3101231;28;116031;-57
2021/01/05 07:14:17;;;;;;;;;;;;;;;22.66;35.21;101725.38;3095315;28;115052;-56
2021/01/05 07:15:49;;;;;;;;;;;;;;;22.68;35.34;101735.19;3092959;28;114059;-57
2021/01/05 07:17:20;;;;;;;;;;;;;;;22.70;34.98;101729.28;3095451;28;114790;-56
2021/01/05 07:18:51;;;;;;;;;;;;;;;22.71;35.12;101729.00;3093942;28;114027;-56
2021/01/05 07:20:22;;;;;;;;;;;;;;;22.75;35.02;101734.84;3095631;28;114139;-57
2021/01/05 07:21:56;;;;;;;;;;;;;;;22.76;34.88;101742.97;3094806;28;113983;-57
2021/01/05 07:23:28;;;;;;;;;;;;;;;22.78;35.22;101740.72;3094089;28;114399;-56
2021/01/05 07:25:10;;;;;;;;;;;;;;;22.80;34.86;101737.59;3087494;28;114163;-57
2021/01/05 07:26:48;;;;;;;;;;;;;;;22.82;34.91;101738.94;3098882;28;113863;-57
2021/01/05 07:28:19;;;;;;;;;;;;;;;22.84;34.94;101738.66;3086850;28;114474;-56
2021/01/05 07:29:57;;;;;;;;;;;;;;;22.86;34.77;101742.00;3085928;28;114341;-57
2021/01/05 07:31:28;;;;;;;;;;;;;;;22.88;34.77;101746.19;3085843;28;113765;-57
2021/01/05 07:32:59;;;;;;;;;;;;;;;22.90;34.89;101743.06;3089941;28;116026;-57
2021/01/05 07:34:32;;;;;;;;;;;;;;;22.91;34.89;101754.03;3092051;28;114976;-56
2021/01/05 07:36:06;;;;;;;;;;;;;;;22.94;35.06;101741.31;3085451;28;115084;-56
2021/01/05 07:37:38;;;;;;;;;;;;;;;22.96;35.00;101753.94;3087183;28;115072;-56
2021/01/05 07:39:11;;;;;;;;;;;;;;;22.98;34.97;101751.69;3086515;28;115837;-56
2021/01/05 07:40:42;;;;;;;;;;;;;;;23.00;35.04;101745.72;3086435;28;116121;-57
2021/01/05 07:42:25;;;;;;;;;;;;;;;23.01;35.00;101745.41;3097070;28;115146;-56
2021/01/05 07:43:57;;;;;;;;;;;;;;;23.03;35.03;101739.50;3106759;28;114393;-56
2021/01/05 07:45:29;;;;;;;;;;;;;;;23.04;35.01;101741.97;3100087;28;114078;-56
2021/01/05 07:47:00;;;;;;;;;;;;;;;23.07;34.96;101743.38;3099110;28;117515;-56
2021/01/05 07:48:31;;;;;;;;;;;;;;;23.08;35.09;101744.22;3095554;28;115945;-56
2021/01/05 07:50:06;;;;;;;;;;;;;;;23.09;35.45;101743.03;3090859;28;114593;-56
2021/01/05 07:51:37;;;;;;;;;;;;;;;23.11;35.27;101738.78;3086321;28;114935;-56
2021/01/05 07:53:10;;;;;;;;;;;;;;;23.13;35.13;101744.09;3090326;28;115307;-56
2021/01/05 07:54:53;;;;;;;;;;;;;;;23.15;35.31;101750.28;3091914;28;114026;-57
2021/01/05 07:56:24;;;;;;;;;;;;;;;23.17;35.02;101748.81;3090685;28;114261;-57
2021/01/05 07:57:56;;;;;;;;;;;;;;;23.18;35.09;101744.84;3087431;28;114992;-56
2021/01/05 07:59:27;;;;;;;;;;;;;;;23.21;34.80;101752.72;3086879;28;114610;-56
2021/01/05 08:00:58;;;;;;;;;;;;;;;23.22;34.99;101754.38;3087635;28;115965;-56
2021/01/05 08:02:30;;;;;;;;;;;;;;;23.24;34.95;101742.81;3091379;28;114614;-57
2021/01/05 08:04:01;;;;;;;;;;;;;;;23.26;35.11;101752.63;3091381;28;115166;-57
2021/01/05 08:05:32;;;;;;;;;;;;;;;23.27;35.15;101751.47;3093660;28;115775;-56